sensor_id;sensor_type;location;lat;lon;timestamp;pressure;altitude;pressure_sealevel;temperature;humidity
57288;BME280;43141;52.010;4.362;2022-07-06T00:01:40;102648.72;;;15.60;62.36
57288;BME280;43141;52.010;4.362;2022-07-06T00:04:06;102644.94;;;15.55;62.31
57288;BME280;43141;52.010;4.362;2022-07-06T00:06:31;102646.41;;;15.57;62.33
57288;BME280;43141;52.010;4.362;2022-07-06T00:08:58;102645.56;;;15.57;62.20
57288;BME280;43141;52.010;4.362;2022-07-06T00:11:23;102645.34;;;15.58;62.18
57288;BME280;43141;52.010;4.362;2022-07-06T00:13:49;102643.00;;;15.62;61.97
57288;BME280;43141;52.010;4.362;2022-07-06T00:16:15;102651.25;;;15.62;61.96
57288;BME280;43141;52.010;4.362;2022-07-06T00:18:41;102650.63;;;15.53;62.98
57288;BME280;43141;52.010;4.362;2022-07-06T00:21:06;102643.28;;;15.47;62.58
57288;BME280;43141;52.010;4.362;2022-07-06T00:23:32;102647.94;;;15.46;62.19
57288;BME280;43141;52.010;4.362;2022-07-06T00:25:57;102642.41;;;15.46;62.77
57288;BME280;43141;52.010;4.362;2022-07-06T00:28:22;102644.13;;;15.48;62.68
57288;BME280;43141;52.010;4.362;2022-07-06T00:30:48;102639.44;;;15.48;62.51
57288;BME280;43141;52.010;4.362;2022-07-06T00:33:13;102641.63;;;15.39;62.84
57288;BME280;43141;52.010;4.362;2022-07-06T00:35:38;102636.34;;;15.38;62.97
57288;BME280;43141;52.010;4.362;2022-07-06T00:38:04;102627.03;;;15.32;63.14
57288;BME280;43141;52.010;4.362;2022-07-06T00:40:29;102633.19;;;15.34;62.97
57288;BME280;43141;52.010;4.362;2022-07-06T00:42:55;102633.19;;;15.34;63.03
57288;BME280;43141;52.010;4.362;2022-07-06T00:45:21;102645.19;;;15.40;62.58
57288;BME280;43141;52.010;4.362;2022-07-06T00:47:47;102635.53;;;15.24;64.45
57288;BME280;43141;52.010;4.362;2022-07-06T00:50:13;102632.59;;;15.19;63.52
57288;BME280;43141;52.010;4.362;2022-07-06T00:52:40;102633.84;;;15.23;63.30
57288;BME280;43141;52.010;4.362;2022-07-06T00:55:08;102640.41;;;15.22;63.21
57288;BME280;43141;52.010;4.362;2022-07-06T00:57:34;102634.69;;;15.23;63.14
57288;BME280;43141;52.010;4.362;2022-07-06T01:00:01;102639.78;;;15.20;63.49
57288;BME280;43141;52.010;4.362;2022-07-06T01:02:32;102632.59;;;15.19;63.46
57288;BME280;43141;52.010;4.362;2022-07-06T01:04:59;102630.88;;;15.18;63.43
57288;BME280;43141;52.010;4.362;2022-07-06T01:07:25;102639.78;;;15.20;63.24
57288;BME280;43141;52.010;4.362;2022-07-06T01:09:50;102632.81;;;15.17;63.26
57288;BME280;43141;52.010;4.362;2022-07-06T01:12:17;102636.19;;;15.19;63.79
57288;BME280;43141;52.010;4.362;2022-07-06T01:14:43;102635.56;;;15.10;63.27
57288;BME280;43141;52.010;4.362;2022-07-06T01:17:09;102636.19;;;15.12;63.41
57288;BME280;43141;52.010;4.362;2022-07-06T01:19:35;102624.81;;;15.09;63.55
57288;BME280;43141;52.010;4.362;2022-07-06T01:22:00;102627.34;;;15.10;63.43
57288;BME280;43141;52.010;4.362;2022-07-06T01:24:26;102629.66;;;15.07;63.40
57288;BME280;43141;52.010;4.362;2022-07-06T01:26:51;102638.97;;;15.06;63.52
57288;BME280;43141;52.010;4.362;2022-07-06T01:29:17;102634.75;;;14.96;64.17
57288;BME280;43141;52.010;4.362;2022-07-06T01:31:50;102634.34;;;15.00;63.86
57288;BME280;43141;52.010;4.362;2022-07-06T01:34:16;102628.63;;;15.01;63.90
57288;BME280;43141;52.010;4.362;2022-07-06T01:36:43;102630.50;;;15.01;63.92
57288;BME280;43141;52.010;4.362;2022-07-06T01:39:09;102627.16;;;14.99;63.63
57288;BME280;43141;52.010;4.362;2022-07-06T01:41:35;102626.94;;;14.93;64.36
57288;BME280;43141;52.010;4.362;2022-07-06T01:44:01;102627.38;;;14.97;64.25
57288;BME280;43141;52.010;4.362;2022-07-06T01:46:27;102622.94;;;14.96;64.11
57288;BME280;43141;52.010;4.362;2022-07-06T01:48:52;102625.47;;;14.91;64.24
57288;BME280;43141;52.010;4.362;2022-07-06T01:51:18;102621.69;;;14.92;64.39
57288;BME280;43141;52.010;4.362;2022-07-06T01:53:43;102624.00;;;14.88;64.38
57288;BME280;43141;52.010;4.362;2022-07-06T01:56:10;102621.25;;;14.88;64.51
57288;BME280;43141;52.010;4.362;2022-07-06T01:58:36;102620.00;;;14.84;64.51
57288;BME280;43141;52.010;4.362;2022-07-06T02:01:06;102617.88;;;14.79;64.62
57288;BME280;43141;52.010;4.362;2022-07-06T02:03:36;102625.28;;;14.79;64.83
57288;BME280;43141;52.010;4.362;2022-07-06T02:06:02;102618.53;;;14.82;64.78
57288;BME280;43141;52.010;4.362;2022-07-06T02:08:28;102617.25;;;14.77;64.73
57288;BME280;43141;52.010;4.362;2022-07-06T02:10:54;102620.00;;;14.77;64.97
57288;BME280;43141;52.010;4.362;2022-07-06T02:13:19;102618.97;;;14.72;65.02
57288;BME280;43141;52.010;4.362;2022-07-06T02:15:44;102613.47;;;14.78;64.83
57288;BME280;43141;52.010;4.362;2022-07-06T02:18:10;102618.09;;;14.71;64.82
57288;BME280;43141;52.010;4.362;2022-07-06T02:20:35;102623.59;;;14.71;65.04
57288;BME280;43141;52.010;4.362;2022-07-06T02:23:00;102631.22;;;14.69;65.25
57288;BME280;43141;52.010;4.362;2022-07-06T02:25:26;102632.69;;;14.65;64.95
57288;BME280;43141;52.010;4.362;2022-07-06T02:27:51;102620.66;;;14.66;65.31
57288;BME280;43141;52.010;4.362;2022-07-06T02:30:16;102623.41;;;14.66;64.86
57288;BME280;43141;52.010;4.362;2022-07-06T02:32:42;102621.69;;;14.65;65.28
57288;BME280;43141;52.010;4.362;2022-07-06T02:35:08;102616.84;;;14.67;65.26
57288;BME280;43141;52.010;4.362;2022-07-06T02:37:33;102618.94;;;14.65;65.37
57288;BME280;43141;52.010;4.362;2022-07-06T02:39:59;102617.28;;;14.64;65.49
57288;BME280;43141;52.010;4.362;2022-07-06T02:42:24;102619.16;;;14.63;65.52
57288;BME280;43141;52.010;4.362;2022-07-06T02:44:52;102620.63;;;14.59;65.30
57288;BME280;43141;52.010;4.362;2022-07-06T02:47:18;102623.59;;;14.58;65.51
57288;BME280;43141;52.010;4.362;2022-07-06T02:49:43;102626.34;;;14.58;65.57
57288;BME280;43141;52.010;4.362;2022-07-06T02:52:08;102625.50;;;14.57;65.66
57288;BME280;43141;52.010;4.362;2022-07-06T02:54:34;102627.81;;;14.54;65.63
57288;BME280;43141;52.010;4.362;2022-07-06T02:56:59;102626.34;;;14.51;65.67
57288;BME280;43141;52.010;4.362;2022-07-06T02:59:24;102626.97;;;14.53;65.86
57288;BME280;43141;52.010;4.362;2022-07-06T03:01:50;102628.88;;;14.53;65.65
57288;BME280;43141;52.010;4.362;2022-07-06T03:04:15;102629.91;;;14.52;65.90
57288;BME280;43141;52.010;4.362;2022-07-06T03:06:40;102627.41;;;14.50;65.92
57288;BME280;43141;52.010;4.362;2022-07-06T03:09:06;102632.06;;;14.50;65.90
57288;BME280;43141;52.010;4.362;2022-07-06T03:11:31;102637.56;;;14.50;65.87
57288;BME280;43141;52.010;4.362;2022-07-06T03:14:00;102632.88;;;14.50;66.06
57288;BME280;43141;52.010;4.362;2022-07-06T03:16:27;102631.63;;;14.46;66.16
57288;BME280;43141;52.010;4.362;2022-07-06T03:18:53;102629.09;;;14.44;66.11
57288;BME280;43141;52.010;4.362;2022-07-06T03:21:18;102634.59;;;14.44;66.21
57288;BME280;43141;52.010;4.362;2022-07-06T03:23:44;102630.56;;;14.47;66.31
57288;BME280;43141;52.010;4.362;2022-07-06T03:26:09;102629.53;;;14.48;66.19
57288;BME280;43141;52.010;4.362;2022-07-06T03:28:34;102633.53;;;14.45;66.47
57288;BME280;43141;52.010;4.362;2022-07-06T03:31:00;102625.47;;;14.44;66.31
57288;BME280;43141;52.010;4.362;2022-07-06T03:33:25;102628.03;;;14.45;66.36
57288;BME280;43141;52.010;4.362;2022-07-06T03:35:50;102633.53;;;14.45;66.30
57288;BME280;43141;52.010;4.362;2022-07-06T03:38:15;102637.94;;;14.46;66.35
57288;BME280;43141;52.010;4.362;2022-07-06T03:40:41;102631.84;;;14.44;66.66
57288;BME280;43141;52.010;4.362;2022-07-06T03:43:06;102626.97;;;14.46;66.58
57288;BME280;43141;52.010;4.362;2022-07-06T03:45:32;102625.91;;;14.48;66.65
57288;BME280;43141;52.010;4.362;2022-07-06T03:47:57;102623.59;;;14.51;66.58
57288;BME280;43141;52.010;4.362;2022-07-06T03:50:22;102626.13;;;14.53;66.67
57288;BME280;43141;52.010;4.362;2022-07-06T03:52:48;102627.81;;;14.54;66.83
57288;BME280;43141;52.010;4.362;2022-07-06T03:55:13;102616.63;;;14.49;66.88
57288;BME280;43141;52.010;4.362;2022-07-06T03:57:38;102618.09;;;14.44;67.16
57288;BME280;43141;52.010;4.362;2022-07-06T04:00:06;102629.09;;;14.51;66.96
57288;BME280;43141;52.010;4.362;2022-07-06T04:02:33;102622.56;;;14.52;66.95
57288;BME280;43141;52.010;4.362;2022-07-06T04:04:58;102623.38;;;14.53;67.01
57288;BME280;43141;52.010;4.362;2022-07-06T04:07:24;102624.44;;;14.52;67.09
57288;BME280;43141;52.010;4.362;2022-07-06T04:09:50;102618.53;;;14.55;67.03
57288;BME280;43141;52.010;4.362;2022-07-06T04:12:16;102621.47;;;14.53;67.03
57288;BME280;43141;52.010;4.362;2022-07-06T04:14:41;102618.53;;;14.48;67.50
57288;BME280;43141;52.010;4.362;2022-07-06T04:17:07;102618.94;;;14.52;67.32
57288;BME280;43141;52.010;4.362;2022-07-06T04:19:51;102623.59;;;14.58;67.28
57288;BME280;43141;52.010;4.362;2022-07-06T04:22:16;102621.28;;;14.55;67.36
57288;BME280;43141;52.010;4.362;2022-07-06T04:24:42;102617.44;;;14.56;67.13
57288;BME280;43141;52.010;4.362;2022-07-06T04:27:07;102617.66;;;14.61;67.06
57288;BME280;43141;52.010;4.362;2022-07-06T04:29:33;102617.28;;;14.64;66.95
57288;BME280;43141;52.010;4.362;2022-07-06T04:31:58;102618.75;;;14.67;66.95
57288;BME280;43141;52.010;4.362;2022-07-06T04:34:23;102619.59;;;14.67;67.18
57288;BME280;43141;52.010;4.362;2022-07-06T04:36:49;102618.75;;;14.67;67.17
57288;BME280;43141;52.010;4.362;2022-07-06T04:39:14;102619.81;;;14.66;67.31
57288;BME280;43141;52.010;4.362;2022-07-06T04:41:39;102625.53;;;14.64;67.73
57288;BME280;43141;52.010;4.362;2022-07-06T04:44:05;102623.81;;;14.63;67.21
57288;BME280;43141;52.010;4.362;2022-07-06T04:46:30;102624.25;;;14.67;67.31
57288;BME280;43141;52.010;4.362;2022-07-06T04:48:55;102618.09;;;14.71;67.15
57288;BME280;43141;52.010;4.362;2022-07-06T04:51:21;102620.63;;;14.73;66.84
57288;BME280;43141;52.010;4.362;2022-07-06T04:53:46;102629.50;;;14.82;66.79
57288;BME280;43141;52.010;4.362;2022-07-06T04:56:11;102627.59;;;14.82;66.59
57288;BME280;43141;52.010;4.362;2022-07-06T04:58:37;102624.00;;;14.88;66.45
57288;BME280;43141;52.010;4.362;2022-07-06T05:01:02;102629.06;;;14.91;66.48
57288;BME280;43141;52.010;4.362;2022-07-06T05:03:28;102628.22;;;14.91;66.47
57288;BME280;43141;52.010;4.362;2022-07-06T05:05:53;102627.38;;;14.97;66.46
57288;BME280;43141;52.010;4.362;2022-07-06T05:08:18;102622.72;;;14.98;66.17
57288;BME280;43141;52.010;4.362;2022-07-06T05:10:44;102632.84;;;15.04;66.10
57288;BME280;43141;52.010;4.362;2022-07-06T05:13:10;102640.47;;;15.02;65.86
57288;BME280;43141;52.010;4.362;2022-07-06T05:15:35;102641.31;;;15.09;65.62
57288;BME280;43141;52.010;4.362;2022-07-06T05:18:01;102638.31;;;15.10;65.74
57288;BME280;43141;52.010;4.362;2022-07-06T05:20:30;102641.50;;;15.14;65.81
57288;BME280;43141;52.010;4.362;2022-07-06T05:22:56;102643.34;;;15.27;65.78
57288;BME280;43141;52.010;4.362;2022-07-06T05:25:21;102645.69;;;15.30;65.22
57288;BME280;43141;52.010;4.362;2022-07-06T05:27:47;102640.38;;;15.35;65.09
57288;BME280;43141;52.010;4.362;2022-07-06T05:30:15;102644.16;;;15.41;65.11
57288;BME280;43141;52.010;4.362;2022-07-06T05:32:41;102650.91;;;15.45;64.99
57288;BME280;43141;52.010;4.362;2022-07-06T05:35:09;102645.38;;;15.52;64.89
57288;BME280;43141;52.010;4.362;2022-07-06T05:37:35;102644.72;;;15.56;64.89
57288;BME280;43141;52.010;4.362;2022-07-06T05:40:06;102645.34;;;15.58;64.64
57288;BME280;43141;52.010;4.362;2022-07-06T05:42:32;102648.28;;;15.63;64.61
57288;BME280;43141;52.010;4.362;2022-07-06T05:44:58;102641.50;;;15.66;64.15
57288;BME280;43141;52.010;4.362;2022-07-06T05:47:23;102638.09;;;15.71;64.28
57288;BME280;43141;52.010;4.362;2022-07-06T05:50:07;102639.56;;;15.73;63.35
57288;BME280;43141;52.010;4.362;2022-07-06T05:52:39;102634.44;;;15.77;63.63
57288;BME280;43141;52.010;4.362;2022-07-06T05:55:24;102640.16;;;15.82;63.13
57288;BME280;43141;52.010;4.362;2022-07-06T05:57:53;102637.81;;;15.86;63.43
57288;BME280;43141;52.010;4.362;2022-07-06T06:00:24;102638.00;;;15.91;62.96
57288;BME280;43141;52.010;4.362;2022-07-06T06:02:51;102633.13;;;15.93;62.15
57288;BME280;43141;52.010;4.362;2022-07-06T06:05:25;102633.28;;;15.98;62.47
57288;BME280;43141;52.010;4.362;2022-07-06T06:07:51;102631.81;;;16.02;62.43
57288;BME280;43141;52.010;4.362;2022-07-06T06:10:21;102637.69;;;16.06;62.24
57288;BME280;43141;52.010;4.362;2022-07-06T06:12:47;102643.38;;;16.11;61.47
57288;BME280;43141;52.010;4.362;2022-07-06T06:15:12;102644.59;;;16.15;60.80
57288;BME280;43141;52.010;4.362;2022-07-06T06:17:38;102640.97;;;16.21;61.29
57288;BME280;43141;52.010;4.362;2022-07-06T06:20:05;102646.44;;;16.28;60.92
57288;BME280;43141;52.010;4.362;2022-07-06T06:22:46;102640.25;;;16.33;61.28
57288;BME280;43141;52.010;4.362;2022-07-06T06:25:14;102638.97;;;16.35;60.89
57288;BME280;43141;52.010;4.362;2022-07-06T06:27:43;102642.09;;;16.39;61.27
57288;BME280;43141;52.010;4.362;2022-07-06T06:30:09;102646.13;;;16.43;60.53
57288;BME280;43141;52.010;4.362;2022-07-06T06:32:35;102646.94;;;16.43;60.34
57288;BME280;43141;52.010;4.362;2022-07-06T06:35:01;102649.88;;;16.49;61.12
57288;BME280;43141;52.010;4.362;2022-07-06T06:37:28;102642.22;;;16.51;60.34
57288;BME280;43141;52.010;4.362;2022-07-06T06:39:53;102640.72;;;16.55;60.37
57288;BME280;43141;52.010;4.362;2022-07-06T06:42:20;102648.47;;;16.65;59.89
57288;BME280;43141;52.010;4.362;2022-07-06T06:44:45;102647.94;;;16.74;59.08
57288;BME280;43141;52.010;4.362;2022-07-06T06:47:11;102648.31;;;16.78;59.54
57288;BME280;43141;52.010;4.362;2022-07-06T06:49:36;102645.50;;;16.85;59.54
57288;BME280;43141;52.010;4.362;2022-07-06T06:52:01;102646.72;;;16.89;59.19
57288;BME280;43141;52.010;4.362;2022-07-06T06:54:27;102646.69;;;16.95;59.46
57288;BME280;43141;52.010;4.362;2022-07-06T06:56:52;102643.03;;;17.02;58.04
57288;BME280;43141;52.010;4.362;2022-07-06T06:59:17;102653.97;;;17.08;57.54
57288;BME280;43141;52.010;4.362;2022-07-06T07:01:43;102644.50;;;17.23;57.06
57288;BME280;43141;52.010;4.362;2022-07-06T07:04:08;102647.09;;;17.36;57.40
57288;BME280;43141;52.010;4.362;2022-07-06T07:06:34;102651.09;;;17.40;56.73
57288;BME280;43141;52.010;4.362;2022-07-06T07:08:59;102646.09;;;17.49;56.81
57288;BME280;43141;52.010;4.362;2022-07-06T07:11:24;102647.84;;;17.62;56.34
57288;BME280;43141;52.010;4.362;2022-07-06T07:13:50;102646.56;;;17.76;56.12
57288;BME280;43141;52.010;4.362;2022-07-06T07:16:15;102650.66;;;17.74;55.62
57288;BME280;43141;52.010;4.362;2022-07-06T07:18:41;102656.56;;;17.77;55.46
57288;BME280;43141;52.010;4.362;2022-07-06T07:21:06;102643.72;;;17.83;54.64
57288;BME280;43141;52.010;4.362;2022-07-06T07:23:31;102645.94;;;17.93;54.63
57288;BME280;43141;52.010;4.362;2022-07-06T07:25:57;102646.56;;;17.95;53.62
57288;BME280;43141;52.010;4.362;2022-07-06T07:28:22;102646.56;;;17.95;53.71
57288;BME280;43141;52.010;4.362;2022-07-06T07:30:48;102643.69;;;18.02;54.25
57288;BME280;43141;52.010;4.362;2022-07-06T07:33:13;102642.72;;;17.96;51.89
57288;BME280;43141;52.010;4.362;2022-07-06T07:35:39;102635.31;;;18.08;53.56
57288;BME280;43141;52.010;4.362;2022-07-06T07:38:04;102635.31;;;18.08;53.91
57288;BME280;43141;52.010;4.362;2022-07-06T07:40:30;102640.72;;;18.15;54.05
57288;BME280;43141;52.010;4.362;2022-07-06T07:42:55;102634.63;;;18.25;53.35
57288;BME280;43141;52.010;4.362;2022-07-06T07:45:20;102632.59;;;18.44;51.76
57288;BME280;43141;52.010;4.362;2022-07-06T07:47:46;102633.22;;;18.58;51.53
57288;BME280;43141;52.010;4.362;2022-07-06T07:50:12;102629.72;;;18.63;50.61
57288;BME280;43141;52.010;4.362;2022-07-06T07:52:38;102628.16;;;18.67;49.81
57288;BME280;43141;52.010;4.362;2022-07-06T07:55:03;102630.84;;;18.73;50.90
57288;BME280;43141;52.010;4.362;2022-07-06T07:57:29;102627.09;;;18.80;50.01
57288;BME280;43141;52.010;4.362;2022-07-06T07:59:55;102619.41;;;18.93;50.63
57288;BME280;43141;52.010;4.362;2022-07-06T08:02:20;102612.78;;;19.06;48.89
57288;BME280;43141;52.010;4.362;2022-07-06T08:04:45;102616.28;;;19.02;47.76
57288;BME280;43141;52.010;4.362;2022-07-06T08:07:10;102605.78;;;19.16;49.44
57288;BME280;43141;52.010;4.362;2022-07-06T08:09:36;102609.97;;;19.30;49.17
57288;BME280;43141;52.010;4.362;2022-07-06T08:12:01;102613.28;;;19.44;49.67
57288;BME280;43141;52.010;4.362;2022-07-06T08:14:27;102608.81;;;19.43;49.39
57288;BME280;43141;52.010;4.362;2022-07-06T08:16:52;102613.78;;;19.41;49.56
57288;BME280;43141;52.010;4.362;2022-07-06T08:19:18;102610.53;;;19.32;49.70
57288;BME280;43141;52.010;4.362;2022-07-06T08:21:46;102618.13;;;19.37;48.66
57288;BME280;43141;52.010;4.362;2022-07-06T08:24:12;102616.66;;;19.46;49.47
57288;BME280;43141;52.010;4.362;2022-07-06T08:26:37;102615.31;;;19.49;49.53
57288;BME280;43141;52.010;4.362;2022-07-06T08:29:03;102611.94;;;19.47;48.33
57288;BME280;43141;52.010;4.362;2022-07-06T08:31:29;102612.81;;;19.47;48.09
57288;BME280;43141;52.010;4.362;2022-07-06T08:33:54;102616.28;;;19.42;48.29
57288;BME280;43141;52.010;4.362;2022-07-06T08:36:21;102616.16;;;19.49;49.14
57288;BME280;43141;52.010;4.362;2022-07-06T08:38:47;102621.31;;;19.46;47.74
57288;BME280;43141;52.010;4.362;2022-07-06T08:41:14;102611.38;;;19.45;47.74
57288;BME280;43141;52.010;4.362;2022-07-06T08:43:40;102609.75;;;19.60;48.03
57288;BME280;43141;52.010;4.362;2022-07-06T08:46:06;102616.66;;;19.46;47.08
57288;BME280;43141;52.010;4.362;2022-07-06T08:48:35;102607.31;;;19.64;48.39
57288;BME280;43141;52.010;4.362;2022-07-06T08:51:02;102615.03;;;19.62;46.05
57288;BME280;43141;52.010;4.362;2022-07-06T08:53:29;102611.59;;;19.72;47.68
57288;BME280;43141;52.010;4.362;2022-07-06T08:55:54;102610.66;;;19.66;47.03
57288;BME280;43141;52.010;4.362;2022-07-06T08:58:20;102620.41;;;19.69;47.60
57288;BME280;43141;52.010;4.362;2022-07-06T09:00:48;102615.22;;;19.72;47.57
57288;BME280;43141;52.010;4.362;2022-07-06T09:03:14;102609.78;;;19.77;47.06
57288;BME280;43141;52.010;4.362;2022-07-06T09:05:40;102601.69;;;19.88;47.37
57288;BME280;43141;52.010;4.362;2022-07-06T09:08:06;102608.44;;;20.09;47.18
57288;BME280;43141;52.010;4.362;2022-07-06T09:10:32;102605.63;;;20.26;47.10
57288;BME280;43141;52.010;4.362;2022-07-06T09:13:07;102607.84;;;20.24;47.46
57288;BME280;43141;52.010;4.362;2022-07-06T09:15:34;102608.34;;;20.21;46.98
57288;BME280;43141;52.010;4.362;2022-07-06T09:18:18;102620.63;;;20.25;46.83
57288;BME280;43141;52.010;4.362;2022-07-06T09:20:47;102612.88;;;20.27;46.93
57288;BME280;43141;52.010;4.362;2022-07-06T09:23:14;102613.91;;;20.21;46.88
57288;BME280;43141;52.010;4.362;2022-07-06T09:25:41;102622.88;;;20.11;46.79
57288;BME280;43141;52.010;4.362;2022-07-06T09:28:06;102620.84;;;20.06;46.10
57288;BME280;43141;52.010;4.362;2022-07-06T09:30:31;102628.50;;;20.16;45.95
57288;BME280;43141;52.010;4.362;2022-07-06T09:32:57;102632.59;;;20.14;45.90
57288;BME280;43141;52.010;4.362;2022-07-06T09:35:25;102638.66;;;20.11;45.26
57288;BME280;43141;52.010;4.362;2022-07-06T09:38:09;102633.28;;;20.04;45.77
57288;BME280;43141;52.010;4.362;2022-07-06T09:40:37;102646.34;;;19.91;46.50
57288;BME280;43141;52.010;4.362;2022-07-06T09:43:17;102645.00;;;19.94;45.92
57288;BME280;43141;52.010;4.362;2022-07-06T09:45:45;102643.59;;;20.08;46.16
57288;BME280;43141;52.010;4.362;2022-07-06T09:48:14;102637.91;;;20.15;45.52
57288;BME280;43141;52.010;4.362;2022-07-06T09:50:44;102641.00;;;20.19;45.88
57288;BME280;43141;52.010;4.362;2022-07-06T09:53:11;102637.16;;;20.20;45.73
57288;BME280;43141;52.010;4.362;2022-07-06T09:55:37;102637.91;;;20.15;46.46
57288;BME280;43141;52.010;4.362;2022-07-06T09:58:03;102640.34;;;20.29;46.95
57288;BME280;43141;52.010;4.362;2022-07-06T10:00:29;102633.88;;;20.40;46.16
57288;BME280;43141;52.010;4.362;2022-07-06T10:02:55;102635.31;;;20.25;45.82
57288;BME280;43141;52.010;4.362;2022-07-06T10:05:21;102629.41;;;20.22;45.86
57288;BME280;43141;52.010;4.362;2022-07-06T10:07:58;102631.25;;;20.16;46.13
57288;BME280;43141;52.010;4.362;2022-07-06T10:10:26;102632.59;;;20.14;45.85
57288;BME280;43141;52.010;4.362;2022-07-06T10:12:56;102630.91;;;20.13;45.78
57288;BME280;43141;52.010;4.362;2022-07-06T10:15:27;102631.53;;;20.15;45.80
57288;BME280;43141;52.010;4.362;2022-07-06T10:17:56;102629.31;;;20.17;45.63
57288;BME280;43141;52.010;4.362;2022-07-06T10:20:21;102630.44;;;20.16;45.35
57288;BME280;43141;52.010;4.362;2022-07-06T10:22:47;102625.28;;;20.07;45.82
57288;BME280;43141;52.010;4.362;2022-07-06T10:25:15;102620.34;;;20.09;45.51
57288;BME280;43141;52.010;4.362;2022-07-06T10:27:42;102624.47;;;20.07;44.67
57288;BME280;43141;52.010;4.362;2022-07-06T10:30:10;102616.81;;;19.97;45.28
57288;BME280;43141;52.010;4.362;2022-07-06T10:32:38;102619.44;;;20.04;45.88
57288;BME280;43141;52.010;4.362;2022-07-06T10:35:06;102619.75;;;20.07;45.97
57288;BME280;43141;52.010;4.362;2022-07-06T10:37:32;102614.91;;;20.15;46.36
57288;BME280;43141;52.010;4.362;2022-07-06T10:39:59;102617.41;;;20.16;47.65
57288;BME280;43141;52.010;4.362;2022-07-06T10:43:17;102610.28;;;20.20;46.03
57288;BME280;43141;52.010;4.362;2022-07-06T10:48:22;102610.09;;;20.44;45.85
57288;BME280;43141;52.010;4.362;2022-07-06T10:53:22;102609.75;;;20.40;44.30
57288;BME280;43141;52.010;4.362;2022-07-06T10:55:50;102603.03;;;20.36;45.64
57288;BME280;43141;52.010;4.362;2022-07-06T11:01:09;102600.53;;;20.52;45.81
57288;BME280;43141;52.010;4.362;2022-07-06T11:06:22;102584.41;;;20.49;44.92
57288;BME280;43141;52.010;4.362;2022-07-06T11:08:49;102585.06;;;20.56;45.58
57288;BME280;43141;52.010;4.362;2022-07-06T11:14:06;102584.03;;;20.62;45.15
57288;BME280;43141;52.010;4.362;2022-07-06T11:24:19;102579.09;;;21.53;45.10
57288;BME280;43141;52.010;4.362;2022-07-06T11:26:47;102566.28;;;21.74;43.70
57288;BME280;43141;52.010;4.362;2022-07-06T11:29:14;102564.66;;;22.11;43.18
57288;BME280;43141;52.010;4.362;2022-07-06T11:31:43;102554.97;;;22.51;42.93
57288;BME280;43141;52.010;4.362;2022-07-06T11:34:10;102550.28;;;22.56;43.45
57288;BME280;43141;52.010;4.362;2022-07-06T11:36:39;102549.91;;;22.96;42.36
57288;BME280;43141;52.010;4.362;2022-07-06T11:39:06;102554.28;;;23.45;42.65
57288;BME280;43141;52.010;4.362;2022-07-06T11:41:31;102545.94;;;23.65;41.60
57288;BME280;43141;52.010;4.362;2022-07-06T11:43:57;102543.47;;;23.84;42.50
57288;BME280;43141;52.010;4.362;2022-07-06T11:46:25;102541.25;;;24.12;42.15
57288;BME280;43141;52.010;4.362;2022-07-06T11:49:02;102553.22;;;23.87;41.82
57288;BME280;43141;52.010;4.362;2022-07-06T11:51:29;102566.53;;;23.49;41.91
57288;BME280;43141;52.010;4.362;2022-07-06T11:53:57;102563.16;;;23.42;42.28
57288;BME280;43141;52.010;4.362;2022-07-06T11:56:25;102562.09;;;23.58;41.71
57288;BME280;43141;52.010;4.362;2022-07-06T11:58:59;102561.28;;;23.73;41.44
57288;BME280;43141;52.010;4.362;2022-07-06T12:01:26;102563.78;;;23.69;40.86
57288;BME280;43141;52.010;4.362;2022-07-06T12:03:53;102563.25;;;23.72;41.72
57288;BME280;43141;52.010;4.362;2022-07-06T12:06:23;102560.97;;;23.59;41.12
57288;BME280;43141;52.010;4.362;2022-07-06T12:08:54;102559.28;;;23.48;40.76
57288;BME280;43141;52.010;4.362;2022-07-06T12:11:22;102559.00;;;23.49;41.52
57288;BME280;43141;52.010;4.362;2022-07-06T12:13:51;102560.13;;;23.48;41.52
57288;BME280;43141;52.010;4.362;2022-07-06T12:16:18;102558.16;;;23.33;41.88
57288;BME280;43141;52.010;4.362;2022-07-06T12:18:45;102562.06;;;23.43;42.03
57288;BME280;43141;52.010;4.362;2022-07-06T12:21:18;102560.66;;;23.40;42.20
57288;BME280;43141;52.010;4.362;2022-07-06T12:23:49;102551.25;;;23.56;42.04
57288;BME280;43141;52.010;4.362;2022-07-06T12:26:17;102553.75;;;23.73;42.57
57288;BME280;43141;52.010;4.362;2022-07-06T12:28:44;102545.38;;;23.58;42.53
57288;BME280;43141;52.010;4.362;2022-07-06T12:31:10;102545.88;;;23.29;42.57
57288;BME280;43141;52.010;4.362;2022-07-06T12:33:37;102547.81;;;23.29;43.02
57288;BME280;43141;52.010;4.362;2022-07-06T12:36:12;102545.91;;;23.50;42.91
57288;BME280;43141;52.010;4.362;2022-07-06T12:38:46;102544.28;;;23.74;42.43
57288;BME280;43141;52.010;4.362;2022-07-06T12:41:29;102535.91;;;23.85;42.30
57288;BME280;43141;52.010;4.362;2022-07-06T12:44:03;102538.19;;;24.03;42.29
57288;BME280;43141;52.010;4.362;2022-07-06T12:46:35;102524.81;;;23.95;42.88
57288;BME280;43141;52.010;4.362;2022-07-06T12:49:03;102532.00;;;24.27;41.99
57288;BME280;43141;52.010;4.362;2022-07-06T12:54:30;102519.16;;;24.31;42.30
57288;BME280;43141;52.010;4.362;2022-07-06T12:57:08;102524.72;;;24.47;41.49
57288;BME280;43141;52.010;4.362;2022-07-06T12:59:44;102520.22;;;24.56;41.86
57288;BME280;43141;52.010;4.362;2022-07-06T13:02:30;102534.16;;;24.71;43.20
57288;BME280;43141;52.010;4.362;2022-07-06T13:05:03;102529.47;;;24.46;42.19
57288;BME280;43141;52.010;4.362;2022-07-06T13:07:32;102527.75;;;24.61;43.14
57288;BME280;43141;52.010;4.362;2022-07-06T13:10:06;102520.25;;;24.51;43.33
57288;BME280;43141;52.010;4.362;2022-07-06T13:12:37;102532.88;;;24.28;43.97
57288;BME280;43141;52.010;4.362;2022-07-06T13:15:07;102535.38;;;24.03;44.58